Davilla, TX (76523)

3:00 PM CDT on July 28, 2015 (GMT -0500)
BioTech in Thrall, TX | | Change Station
CLOSE
Current Station
Personal Weather Station
Location: Thrall, TX
Elevation: 561 ft
Nearby Weather Stations

Elev 561 ft 30.59 °N, 97.30 °W | Updated 3 minutes ago

Clear
Clear
101.5 °F
Feels Like 114 °F
N
6.8
Wind Variable Wind from SSW

Today
High -- | Low -- °F
--% Chance of Precip.
Yesterday
High -- | Low -- °F
Precip. -- in
6:43 AM 8:26 PM
Waxing Gibbous, 91% visible
Pressure 29.95 in
Visibility 10.0 miles
Clouds Clear
Heat Index 114 °F
Dew Point 73 °F
Humidity 41%
Rainfall 0.00 in
Snow Depth Not available.
UV 12 out of 12
Pollen 6.10 out of 12
Air Quality Not available.
Flu Activity Not available.
METAR KT35 281935Z AUTO 18009G14KT 10SM CLR 36/20 A2995 RMK AO2 T03600201

More Conditions Fewer Conditions

Pressure 29.95 in
Visibility 10.0 miles
Clouds Clear
Heat Index 114 °F
Dew Point 73 °F
Humidity 41%
Rainfall 0.00 in
Snow Depth Not available.
UV 12 out of 12
Pollen 6.10 out of 12
Air Quality Not available.
Flu Activity Not available.
METAR KT35 281935Z AUTO 18009G14KT 10SM CLR 36/20 A2995 RMK AO2 T03600201

More Conditions Fewer Conditions

10-Day Weather Forecast

×

Almanac

Astronomy

Jul. 28, 2015 Rise Set
Actual Time
Civil Twilight
Nautical Twilight
Astronomical Twilight
Moon
Length of Visible Light
Length of Day
Tomorrow will be .
, % of the Moon is Illuminated

Today's Extremes

State Highs State Lows

Community

WunderPhotos

Upload Photos

1,841,935 photos uploaded!

WunderBlogs® & News

Nearby

Air Quality

  Air Quality AQ Index Pollutant
Not available.

Snow Depth

Station Depth Elevation

Earthquake Activity

City Distance Mag. Time & Date
Minimum magnitude displayed is 2.5.

Coastal Water Temperatures

Place Temperature

Stations

Nearby Weather Stations

Station Location Temp. Windchill Dew Point Humidity Wind Precip. Elev Updated Type